createdAt,value
2022-10-10T00:00:11.897Z,49.80
2022-10-10T00:03:07.761Z,49.80
2022-10-10T00:06:00.837Z,49.90
2022-10-10T00:08:54.426Z,49.80
2022-10-10T00:11:47.057Z,49.80
2022-10-10T00:14:40.212Z,49.80
2022-10-10T00:17:33.291Z,49.80
2022-10-10T00:20:27.964Z,49.80
2022-10-10T00:23:21.685Z,49.80
2022-10-10T00:26:18.993Z,49.80
2022-10-10T00:29:12.088Z,49.80
2022-10-10T00:32:05.115Z,49.80
2022-10-10T00:34:58.076Z,49.80
2022-10-10T00:37:52.751Z,49.80
2022-10-10T00:40:48.853Z,49.90
2022-10-10T00:43:42.641Z,49.90
2022-10-10T00:46:36.566Z,49.90
2022-10-10T00:49:31.875Z,49.90
2022-10-10T00:52:25.164Z,49.90
2022-10-10T00:55:19.997Z,49.90
2022-10-10T00:58:13.750Z,49.90
2022-10-10T01:01:08.035Z,49.90
2022-10-10T01:04:03.148Z,49.90
2022-10-10T01:06:56.253Z,49.90
2022-10-10T01:09:51.532Z,49.90
2022-10-10T01:12:57.915Z,49.90
2022-10-10T01:15:57.044Z,49.90
2022-10-10T01:18:55.270Z,49.90
2022-10-10T01:21:54.686Z,49.90
2022-10-10T01:24:59.020Z,49.80
2022-10-10T01:27:59.779Z,49.80
2022-10-10T01:30:57.297Z,49.80
2022-10-10T01:33:58.241Z,49.80
2022-10-10T01:36:59.855Z,49.80
2022-10-10T01:39:59.504Z,49.80
2022-10-10T01:42:55.812Z,49.80
2022-10-10T01:45:51.093Z,49.80
2022-10-10T01:48:50.096Z,49.80
2022-10-10T01:51:57.374Z,49.80
2022-10-10T01:55:03.803Z,49.80
2022-10-10T01:58:12.257Z,49.80
2022-10-10T02:01:11.818Z,49.80
2022-10-10T02:04:14.525Z,49.70
2022-10-10T02:07:12.666Z,49.70
2022-10-10T02:10:09.315Z,49.70
2022-10-10T02:13:05.193Z,49.60
2022-10-10T02:16:00.647Z,49.70
2022-10-10T02:18:55.336Z,49.60
2022-10-10T02:21:51.807Z,49.60
2022-10-10T02:24:45.328Z,49.60
2022-10-10T02:27:44.500Z,49.60
2022-10-10T02:30:40.927Z,49.60
2022-10-10T02:33:43.939Z,49.60
2022-10-10T02:36:38.460Z,49.50
2022-10-10T02:39:37.427Z,49.50
2022-10-10T02:42:31.064Z,49.50
2022-10-10T02:45:24.683Z,49.50
2022-10-10T02:48:17.236Z,49.70
2022-10-10T02:51:10.888Z,49.50
2022-10-10T02:54:04.413Z,49.50
2022-10-10T02:56:58.699Z,50.10
2022-10-10T02:59:52.215Z,49.50
2022-10-10T03:02:46.013Z,49.40
2022-10-10T03:05:39.651Z,49.40
2022-10-10T03:08:32.331Z,49.40
2022-10-10T03:11:25.329Z,49.30
2022-10-10T03:14:19.768Z,49.30
2022-10-10T03:17:13.389Z,49.30
2022-10-10T03:20:08.530Z,49.30
2022-10-10T03:23:01.255Z,49.90
2022-10-10T03:25:54.472Z,49.20
2022-10-10T03:28:47.287Z,49.20
2022-10-10T03:31:41.592Z,49.20
2022-10-10T03:34:34.420Z,49.20
2022-10-10T03:37:27.415Z,49.20
2022-10-10T03:40:20.178Z,49.20
2022-10-10T03:43:15.567Z,49.20
2022-10-10T03:46:11.428Z,49.20
2022-10-10T03:49:09.730Z,49.10
2022-10-10T03:52:03.484Z,49.10
2022-10-10T03:54:56.147Z,49.10
2022-10-10T03:57:49.523Z,49.10
2022-10-10T04:00:42.468Z,49.10
2022-10-10T04:03:35.385Z,49.70
2022-10-10T04:06:29.939Z,49.10
2022-10-10T04:09:24.195Z,49.10
2022-10-10T04:12:17.430Z,49.00
2022-10-10T04:15:11.364Z,49.00
2022-10-10T04:18:04.421Z,49.00
2022-10-10T04:20:57.290Z,49.00
2022-10-10T04:23:51.718Z,49.00
2022-10-10T04:26:44.511Z,48.90
2022-10-10T04:29:37.326Z,48.90
2022-10-10T04:32:30.152Z,48.90
2022-10-10T04:35:23.409Z,48.90
2022-10-10T04:38:16.885Z,48.90
2022-10-10T04:41:11.696Z,48.90
2022-10-10T04:44:04.496Z,48.90
2022-10-10T04:46:57.439Z,48.90
2022-10-10T04:49:50.369Z,48.90
2022-10-10T04:52:43.343Z,48.80
2022-10-10T04:55:36.323Z,48.80
2022-10-10T04:58:30.871Z,48.80
2022-10-10T05:01:24.577Z,48.70
2022-10-10T05:04:17.226Z,48.70
2022-10-10T05:07:10.539Z,48.70
2022-10-10T05:10:03.981Z,48.70
2022-10-10T05:12:57.432Z,48.70
2022-10-10T05:15:53.564Z,48.70
2022-10-10T05:18:46.596Z,48.70
2022-10-10T05:21:39.486Z,48.60
2022-10-10T05:24:32.520Z,48.60
2022-10-10T05:27:25.669Z,48.70
2022-10-10T05:30:18.750Z,48.60
2022-10-10T05:33:12.591Z,48.60
2022-10-10T05:36:07.948Z,48.60
2022-10-10T05:39:02.386Z,48.60
2022-10-10T05:41:55.564Z,48.60
2022-10-10T05:44:48.416Z,48.60
2022-10-10T05:47:41.488Z,48.60
2022-10-10T05:50:39.216Z,48.50
2022-10-10T05:53:32.640Z,48.50
2022-10-10T05:56:25.508Z,48.50
2022-10-10T05:59:18.325Z,48.50
2022-10-10T06:02:13.603Z,48.50
2022-10-10T06:05:07.345Z,48.40
2022-10-10T06:08:09.374Z,48.40
2022-10-10T06:11:07.830Z,48.20
2022-10-10T06:14:00.363Z,48.20
2022-10-10T06:16:53.736Z,48.10
2022-10-10T06:19:46.698Z,48.00
2022-10-10T06:22:39.601Z,48.00
2022-10-10T06:25:40.607Z,47.90
2022-10-10T06:28:35.608Z,47.90
2022-10-10T06:31:28.614Z,47.90
2022-10-10T06:34:21.754Z,47.80
2022-10-10T06:37:14.500Z,47.90
2022-10-10T06:40:08.185Z,47.90
2022-10-10T06:43:04.462Z,47.90
2022-10-10T06:45:57.978Z,47.90
2022-10-10T06:48:51.256Z,48.00
2022-10-10T06:51:44.589Z,47.90
2022-10-10T06:54:37.524Z,47.90
2022-10-10T06:57:30.317Z,48.00
2022-10-10T07:00:25.984Z,48.00
2022-10-10T07:03:19.594Z,48.00
2022-10-10T07:06:13.430Z,48.10
2022-10-10T07:09:07.453Z,48.00
2022-10-10T07:12:00.516Z,48.00
2022-10-10T07:14:53.355Z,48.00
2022-10-10T07:17:53.424Z,48.00
2022-10-10T07:20:48.015Z,48.10
2022-10-10T07:23:41.574Z,48.10
2022-10-10T07:26:38.290Z,48.10
2022-10-10T07:29:31.840Z,48.10
2022-10-10T07:32:24.892Z,48.20
2022-10-10T07:35:19.081Z,48.20
2022-10-10T07:38:13.066Z,48.20
2022-10-10T07:41:07.574Z,48.20
2022-10-10T07:44:00.828Z,48.20
2022-10-10T07:46:53.718Z,48.20
2022-10-10T07:49:46.793Z,48.10
2022-10-10T07:52:41.210Z,48.10
2022-10-10T07:55:34.726Z,48.10
2022-10-10T07:58:27.318Z,48.20
2022-10-10T08:01:22.075Z,48.20
2022-10-10T08:04:15.453Z,48.20
2022-10-10T08:07:08.551Z,48.30
2022-10-10T08:10:03.316Z,48.30
2022-10-10T08:12:56.891Z,48.50
2022-10-10T08:15:51.904Z,48.50
2022-10-10T08:18:45.115Z,48.60
2022-10-10T08:21:38.773Z,48.60
2022-10-10T08:24:31.651Z,48.70
2022-10-10T08:27:26.104Z,48.70
2022-10-10T08:30:20.161Z,48.70
2022-10-10T08:33:13.711Z,48.70
2022-10-10T08:36:08.102Z,48.70
2022-10-10T08:39:01.650Z,48.80
2022-10-10T08:41:58.828Z,48.80
2022-10-10T08:44:56.348Z,48.80
2022-10-10T08:47:54.165Z,48.80
2022-10-10T08:50:51.534Z,48.80
2022-10-10T08:53:49.261Z,48.90
2022-10-10T08:56:43.086Z,49.00
2022-10-10T08:59:40.833Z,49.00
2022-10-10T09:02:55.030Z,49.10
2022-10-10T09:06:01.115Z,49.10
2022-10-10T09:09:01.908Z,49.20
2022-10-10T09:12:07.724Z,49.10
2022-10-10T09:15:13.537Z,49.10
2022-10-10T09:18:23.559Z,49.00
2022-10-10T09:21:19.282Z,49.10
2022-10-10T09:24:19.527Z,49.10
2022-10-10T09:27:17.845Z,49.10
2022-10-10T09:30:18.588Z,49.10
2022-10-10T09:33:23.910Z,49.00
2022-10-10T09:36:20.679Z,49.10
2022-10-10T09:39:21.815Z,49.10
2022-10-10T09:42:16.246Z,49.30
2022-10-10T09:45:18.199Z,49.40
2022-10-10T09:48:13.439Z,49.30
2022-10-10T09:51:09.331Z,49.50
2022-10-10T09:54:06.026Z,49.50
2022-10-10T09:57:00.298Z,49.60
2022-10-10T09:59:54.260Z,49.70
2022-10-10T10:02:49.774Z,49.70
2022-10-10T10:05:46.886Z,49.60
2022-10-10T10:08:39.690Z,49.60
2022-10-10T10:11:35.424Z,49.70
2022-10-10T10:14:33.012Z,49.70
2022-10-10T10:17:26.224Z,49.60
2022-10-10T10:20:34.766Z,49.60
2022-10-10T10:23:35.201Z,49.70
2022-10-10T10:26:44.918Z,49.60
2022-10-10T10:29:38.737Z,49.70
2022-10-10T10:32:43.248Z,49.80
2022-10-10T10:35:46.193Z,49.70
2022-10-10T10:38:45.662Z,49.70
2022-10-10T10:41:45.510Z,49.80
2022-10-10T10:44:44.104Z,49.90
2022-10-10T10:47:46.571Z,50.00
2022-10-10T10:50:48.497Z,49.90
2022-10-10T10:53:53.501Z,50.00
2022-10-10T10:56:51.545Z,50.00
2022-10-10T11:00:21.920Z,50.10
2022-10-10T11:05:18.049Z,50.70
2022-10-10T11:07:19.404Z,50.40
2022-10-10T11:10:25.242Z,50.70
2022-10-10T11:13:23.953Z,50.60
2022-10-10T11:16:46.949Z,50.70
2022-10-10T11:19:43.173Z,50.60
2022-10-10T11:22:40.565Z,50.80
2022-10-10T11:25:42.794Z,50.80
2022-10-10T11:28:40.960Z,50.90
2022-10-10T11:31:39.207Z,50.90
2022-10-10T11:34:39.057Z,50.80
2022-10-10T11:37:35.479Z,50.90
2022-10-10T11:40:37.843Z,51.20
2022-10-10T11:43:40.341Z,51.20
2022-10-10T11:46:41.348Z,51.20
2022-10-10T11:49:44.683Z,51.30
2022-10-10T11:52:46.996Z,51.50
2022-10-10T11:55:46.365Z,51.40
2022-10-10T11:58:43.466Z,52.40
2022-10-10T12:01:39.909Z,51.50
2022-10-10T12:04:36.870Z,51.60
2022-10-10T12:07:33.616Z,51.60
2022-10-10T12:10:32.425Z,51.70
2022-10-10T12:13:35.224Z,51.60
2022-10-10T12:16:31.065Z,51.70
2022-10-10T12:19:26.826Z,51.60
2022-10-10T12:22:25.375Z,51.60
2022-10-10T12:25:26.093Z,51.90
2022-10-10T12:28:29.158Z,51.70
2022-10-10T12:31:39.368Z,51.70
2022-10-10T12:34:44.902Z,51.80
2022-10-10T12:37:58.027Z,51.80
2022-10-10T12:41:11.444Z,51.80
2022-10-10T12:44:22.897Z,51.90
2022-10-10T12:48:04.066Z,51.80
2022-10-10T12:50:59.762Z,51.80
2022-10-10T12:53:56.063Z,51.80
2022-10-10T12:56:54.223Z,51.70
2022-10-10T12:59:47.828Z,51.90
2022-10-10T13:02:45.090Z,51.70
2022-10-10T13:05:40.756Z,51.60
2022-10-10T13:08:37.227Z,51.70
2022-10-10T13:11:30.984Z,51.70
2022-10-10T13:14:26.728Z,51.70
2022-10-10T13:17:25.055Z,51.90
2022-10-10T13:20:29.457Z,51.80
2022-10-10T13:23:22.584Z,52.50
2022-10-10T13:26:23.317Z,52.00
2022-10-10T13:29:29.912Z,52.00
2022-10-10T13:32:26.384Z,51.90
2022-10-10T13:35:23.804Z,52.00
2022-10-10T13:38:20.833Z,52.00
2022-10-10T13:41:14.455Z,52.20
2022-10-10T13:44:14.420Z,52.20
2022-10-10T13:47:44.570Z,52.30
2022-10-10T13:50:56.246Z,52.10
2022-10-10T13:53:54.591Z,52.10
2022-10-10T13:56:47.563Z,52.30
2022-10-10T13:59:42.201Z,52.20
2022-10-10T14:02:38.104Z,52.30
2022-10-10T14:05:33.189Z,52.20
2022-10-10T14:08:29.060Z,52.30
2022-10-10T14:11:24.701Z,52.70
2022-10-10T14:14:21.945Z,52.40
2022-10-10T14:17:15.876Z,52.50
2022-10-10T14:20:13.347Z,52.80
2022-10-10T14:23:07.999Z,52.70
2022-10-10T14:26:00.873Z,52.60
2022-10-10T14:28:53.940Z,52.70
2022-10-10T14:31:47.994Z,52.70
2022-10-10T14:34:41.059Z,52.60
2022-10-10T14:37:38.631Z,52.50
2022-10-10T14:40:34.961Z,52.20
2022-10-10T14:43:28.163Z,52.20
2022-10-10T14:46:21.465Z,52.00
2022-10-10T14:49:18.960Z,52.20
2022-10-10T14:52:11.807Z,52.10
2022-10-10T14:55:05.566Z,52.10
2022-10-10T14:58:00.585Z,52.10
2022-10-10T15:00:54.377Z,52.20
2022-10-10T15:03:47.647Z,52.10
2022-10-10T15:06:55.439Z,52.00
2022-10-10T15:10:31.609Z,52.10
2022-10-10T15:13:08.190Z,52.20
2022-10-10T15:16:00.917Z,52.20
2022-10-10T15:18:54.826Z,52.10
2022-10-10T15:21:47.677Z,52.10
2022-10-10T15:24:40.904Z,52.20
2022-10-10T15:27:34.233Z,52.30
2022-10-10T15:30:28.425Z,52.20
2022-10-10T15:33:21.924Z,52.40
2022-10-10T15:36:18.974Z,52.40
2022-10-10T15:39:13.014Z,52.60
2022-10-10T15:42:12.244Z,52.60
2022-10-10T15:45:07.934Z,53.30
2022-10-10T15:48:02.725Z,52.80
2022-10-10T15:50:56.028Z,52.90
2022-10-10T15:53:51.931Z,52.90
2022-10-10T15:56:45.020Z,53.00
2022-10-10T15:59:40.435Z,53.20
2022-10-10T16:02:36.716Z,53.20
2022-10-10T16:05:32.692Z,53.30
2022-10-10T16:08:25.905Z,53.40
2022-10-10T16:11:21.096Z,53.50
2022-10-10T16:14:13.796Z,53.60
2022-10-10T16:17:07.005Z,53.60
2022-10-10T16:20:00.036Z,53.40
2022-10-10T16:22:54.342Z,53.50
2022-10-10T16:25:48.077Z,53.60
2022-10-10T16:28:41.657Z,53.90
2022-10-10T16:31:36.540Z,53.70
2022-10-10T16:34:29.941Z,53.80
2022-10-10T16:37:23.267Z,53.70
2022-10-10T16:40:17.304Z,53.70
2022-10-10T16:43:09.840Z,53.70
2022-10-10T16:46:03.765Z,53.70
2022-10-10T16:48:58.858Z,53.70
2022-10-10T16:51:52.139Z,53.60
2022-10-10T16:54:46.896Z,53.70
2022-10-10T16:57:44.630Z,53.70
2022-10-10T17:00:39.609Z,53.70
2022-10-10T17:03:33.165Z,53.70
2022-10-10T17:06:27.322Z,53.70
2022-10-10T17:09:24.070Z,53.70
2022-10-10T17:12:16.928Z,53.70
2022-10-10T17:15:11.843Z,53.70
2022-10-10T17:18:09.614Z,53.70
2022-10-10T17:21:05.072Z,53.80
2022-10-10T17:23:58.109Z,53.80
2022-10-10T17:26:51.008Z,53.80
2022-10-10T17:29:43.823Z,53.80
2022-10-10T17:32:38.131Z,53.80
2022-10-10T17:35:30.829Z,54.40
2022-10-10T17:38:39.264Z,53.90
2022-10-10T17:41:33.470Z,53.80
2022-10-10T17:44:27.490Z,53.80
2022-10-10T17:47:21.068Z,54.10
2022-10-10T17:50:15.584Z,54.00
2022-10-10T17:53:08.763Z,54.10
2022-10-10T17:56:02.078Z,54.30
2022-10-10T17:58:55.145Z,54.50
2022-10-10T18:01:48.274Z,54.50
2022-10-10T18:04:41.459Z,54.60
2022-10-10T18:07:36.310Z,54.70
2022-10-10T18:10:30.096Z,54.90
2022-10-10T18:13:23.208Z,54.80
2022-10-10T18:16:17.814Z,55.10
2022-10-10T18:19:11.993Z,55.10
2022-10-10T18:22:05.230Z,54.90
2022-10-10T18:24:59.246Z,55.10
2022-10-10T18:27:52.241Z,55.10
2022-10-10T18:30:45.116Z,55.20
2022-10-10T18:33:39.140Z,55.20
2022-10-10T18:36:34.520Z,55.10
2022-10-10T18:39:32.916Z,55.00
2022-10-10T18:42:27.388Z,55.10
2022-10-10T18:45:20.154Z,55.10
2022-10-10T18:48:12.960Z,55.70
2022-10-10T18:51:08.051Z,55.20
2022-10-10T18:54:03.550Z,55.30
2022-10-10T18:56:57.389Z,55.50
2022-10-10T18:59:54.595Z,55.60
2022-10-10T19:02:47.940Z,56.10
2022-10-10T19:05:41.462Z,56.10
2022-10-10T19:08:35.209Z,56.20
2022-10-10T19:11:29.369Z,56.20
2022-10-10T19:14:22.693Z,56.20
2022-10-10T19:17:17.654Z,56.10
2022-10-10T19:20:12.110Z,56.20
2022-10-10T19:23:05.374Z,56.10
2022-10-10T19:26:03.407Z,56.10
2022-10-10T19:28:56.364Z,56.00
2022-10-10T19:31:48.929Z,55.80
2022-10-10T19:34:43.405Z,55.90
2022-10-10T19:37:36.034Z,56.00
2022-10-10T19:40:29.258Z,56.20
2022-10-10T19:43:22.368Z,56.10
2022-10-10T19:46:17.554Z,56.10
2022-10-10T19:49:11.858Z,56.70
2022-10-10T19:52:07.302Z,56.10
2022-10-10T19:55:00.126Z,56.20
2022-10-10T19:57:53.088Z,56.20
2022-10-10T20:00:46.180Z,56.00
2022-10-10T20:03:39.676Z,56.30
2022-10-10T20:06:33.444Z,56.10
2022-10-10T20:09:29.281Z,56.10
2022-10-10T20:12:22.400Z,56.20
2022-10-10T20:15:15.573Z,56.60
2022-10-10T20:18:09.109Z,56.40
2022-10-10T20:21:11.048Z,56.40
2022-10-10T20:24:08.864Z,56.50
2022-10-10T20:27:03.365Z,56.50
2022-10-10T20:29:56.326Z,56.50
2022-10-10T20:32:49.114Z,56.30
2022-10-10T20:35:42.217Z,56.50
2022-10-10T20:38:35.078Z,56.20
2022-10-10T20:41:30.972Z,56.20
2022-10-10T20:44:26.017Z,56.20
2022-10-10T20:47:19.150Z,56.20
2022-10-10T20:50:12.108Z,56.10
2022-10-10T20:53:05.272Z,56.10
2022-10-10T20:55:57.932Z,56.40
2022-10-10T20:58:51.480Z,56.40
2022-10-10T21:01:46.354Z,56.40
2022-10-10T21:04:38.990Z,56.40
2022-10-10T21:07:31.889Z,56.60
2022-10-10T21:10:24.907Z,56.60
2022-10-10T21:13:18.175Z,56.70
2022-10-10T21:16:14.264Z,56.90
2022-10-10T21:19:10.304Z,56.70
2022-10-10T21:22:03.061Z,56.70
2022-10-10T21:24:56.377Z,56.60
2022-10-10T21:27:50.281Z,56.80
2022-10-10T21:30:48.707Z,56.70
2022-10-10T21:33:42.196Z,56.60
2022-10-10T21:36:37.937Z,56.60
2022-10-10T21:39:31.268Z,56.70
2022-10-10T21:42:24.456Z,56.50
2022-10-10T21:45:17.404Z,56.50
2022-10-10T21:48:12.096Z,57.30
2022-10-10T21:51:05.199Z,56.80
2022-10-10T21:54:00.019Z,56.60
2022-10-10T21:56:52.828Z,56.60
2022-10-10T21:59:46.256Z,57.30
2022-10-10T22:02:40.401Z,56.60
2022-10-10T22:05:35.472Z,56.60
2022-10-10T22:08:28.109Z,56.70
2022-10-10T22:11:25.197Z,56.50
2022-10-10T22:14:18.004Z,56.50
2022-10-10T22:17:11.095Z,56.50
2022-10-10T22:20:04.586Z,56.90
2022-10-10T22:22:58.455Z,56.60
2022-10-10T22:25:52.779Z,56.60
2022-10-10T22:28:47.540Z,56.60
2022-10-10T22:31:41.103Z,56.60
2022-10-10T22:34:33.967Z,56.60
2022-10-10T22:37:27.546Z,56.70
2022-10-10T22:40:22.138Z,56.50
2022-10-10T22:43:15.030Z,56.60
2022-10-10T22:46:10.064Z,56.50
2022-10-10T22:49:03.373Z,56.60
2022-10-10T22:51:56.507Z,56.60
2022-10-10T22:54:49.519Z,56.50
2022-10-10T22:57:42.225Z,56.40
2022-10-10T23:00:35.389Z,56.50
2022-10-10T23:03:29.322Z,56.40
2022-10-10T23:06:22.051Z,56.50
2022-10-10T23:09:15.053Z,56.30
2022-10-10T23:12:08.350Z,56.20
2022-10-10T23:15:01.424Z,56.20
2022-10-10T23:17:54.271Z,56.20
2022-10-10T23:20:49.226Z,56.20
2022-10-10T23:23:42.468Z,56.20
2022-10-10T23:26:35.568Z,56.20
2022-10-10T23:29:28.272Z,56.20
2022-10-10T23:32:22.902Z,56.20
2022-10-10T23:35:16.463Z,56.10
2022-10-10T23:38:10.316Z,56.20
2022-10-10T23:41:03.426Z,56.30
2022-10-10T23:43:56.357Z,56.10
2022-10-10T23:46:49.211Z,56.10
2022-10-10T23:49:42.487Z,56.10
2022-10-10T23:52:35.403Z,56.00
2022-10-10T23:55:29.759Z,56.10
2022-10-10T23:58:23.538Z,56.00
